Time;durP1;ratioP1;P1;durP2;ratioP2;P2;SDS_P1;SDS_P2;PMS_P1;PMS_P2;Temp;Humidity;BMP_temperature;BMP_pressure;BME280_temperature;BME280_humidity;BME280_pressure;Samples;Min_cycle;Max_cycle;Signal;HPM_P1;HPM_P2
2022/07/21 00:01:29;;;;;;;;;;;26.40;96.50;;;;;;5050690;28;19967;-70
2022/07/21 00:03:54;;;;;;;;;;;26.30;96.60;;;;;;5050597;28;19913;-71
2022/07/21 00:06:20;;;;;;;;;;;26.20;96.80;;;;;;5050292;28;19909;-70
2022/07/21 00:08:46;;;;;;;;;;;26.10;96.80;;;;;;5050547;28;19916;-71
2022/07/21 00:11:11;;;;;;;;;;;26.10;97.50;;;;;;5050606;28;20319;-71
2022/07/21 00:13:37;;;;;;;;;;;26.10;97.60;;;;;;5050980;28;19959;-71
2022/07/21 00:16:03;;;;;;;;;;;26.00;97.30;;;;;;5050157;28;19913;-70
2022/07/21 00:18:29;;;;;;;;;;;26.00;98.00;;;;;;5050537;28;20375;-70
2022/07/21 00:20:55;;;;;;;;;;;25.90;97.40;;;;;;5050605;28;19924;-70
2022/07/21 00:23:21;;;;;;;;;;;25.80;97.60;;;;;;5050250;28;19913;-70
2022/07/21 00:25:47;;;;;;;;;;;25.80;97.90;;;;;;5050305;28;19921;-71
2022/07/21 00:28:13;;;;;;;;;;;25.70;98.00;;;;;;5045948;28;19920;-71
2022/07/21 00:30:38;;;;;;;;;;;25.60;98.20;;;;;;5043953;28;19920;-70
2022/07/21 00:33:04;;;;;;;;;;;25.60;98.50;;;;;;5029736;28;19959;-71
2022/07/21 00:35:29;;;;;;;;;;;25.50;98.50;;;;;;5030050;28;20331;-71
2022/07/21 00:37:55;;;;;;;;;;;25.50;98.60;;;;;;5030493;28;20007;-71
2022/07/21 00:40:21;;;;;;;;;;;25.50;99.00;;;;;;5033902;28;19971;-71
2022/07/21 00:42:46;;;;;;;;;;;25.60;98.80;;;;;;5033919;28;20366;-71
2022/07/21 00:45:12;;;;;;;;;;;25.60;99.20;;;;;;5033609;28;20276;-70
2022/07/21 00:47:38;;;;;;;;;;;25.60;98.70;;;;;;5033463;28;20019;-70
2022/07/21 00:50:06;;;;;;;;;;;25.60;99.30;;;;;;5032038;28;20340;-71
2022/07/21 00:52:32;;;;;;;;;;;25.60;99.40;;;;;;5033738;28;20539;-71
2022/07/21 00:54:57;;;;;;;;;;;25.70;98.90;;;;;;5033226;28;19924;-72
2022/07/21 00:57:23;;;;;;;;;;;25.70;99.50;;;;;;5033573;28;19909;-70
2022/07/21 00:59:48;;;;;;;;;;;25.60;98.90;;;;;;5033220;28;19975;-71
2022/07/21 01:02:14;;;;;;;;;;;25.60;98.30;;;;;;5033403;28;19909;-71
2022/07/21 01:04:40;;;;;;;;;;;25.60;99.00;;;;;;5033188;28;20379;-71
2022/07/21 01:07:06;;;;;;;;;;;25.50;99.30;;;;;;5033274;28;20304;-69
2022/07/21 01:09:32;;;;;;;;;;;25.70;99.50;;;;;;5033375;28;20403;-70
2022/07/21 01:11:58;;;;;;;;;;;25.80;99.30;;;;;;5033305;28;19959;-71
2022/07/21 01:14:24;;;;;;;;;;;26.00;98.60;;;;;;5032927;28;19913;-71
2022/07/21 01:16:50;;;;;;;;;;;26.20;98.00;;;;;;5033564;28;19913;-71
2022/07/21 01:19:15;;;;;;;;;;;26.30;97.90;;;;;;5033065;28;19909;-71
2022/07/21 01:21:42;;;;;;;;;;;26.30;97.70;;;;;;5033748;28;19914;-72
2022/07/21 01:24:08;;;;;;;;;;;26.30;97.60;;;;;;5033072;28;19961;-71
2022/07/21 01:26:41;;;;;;;;;;;26.40;97.30;;;;;;5031791;28;19963;-71
2022/07/21 01:29:08;;;;;;;;;;;26.40;97.40;;;;;;5033077;28;20292;-70
2022/07/21 01:31:34;;;;;;;;;;;26.30;97.50;;;;;;5033326;28;20364;-70
2022/07/21 01:33:59;;;;;;;;;;;26.30;97.30;;;;;;5032923;28;19909;-71
2022/07/21 01:36:25;;;;;;;;;;;26.20;97.60;;;;;;5032645;28;19920;-71
2022/07/21 01:41:34;;;;;;;;;;;26.30;97.30;;;;;;5033081;28;20307;-70
2022/07/21 01:44:01;;;;;;;;;;;26.30;97.20;;;;;;5032552;28;19909;-71
2022/07/21 01:46:28;;;;;;;;;;;26.20;97.40;;;;;;5032329;28;20296;-71
2022/07/21 01:48:54;;;;;;;;;;;26.20;97.40;;;;;;5033039;28;19909;-71
2022/07/21 01:51:19;;;;;;;;;;;26.20;97.60;;;;;;5033527;28;19916;-70
2022/07/21 01:53:45;;;;;;;;;;;26.20;97.50;;;;;;5033492;28;20039;-70
2022/07/21 01:56:11;;;;;;;;;;;26.20;97.90;;;;;;5032506;28;20395;-70
2022/07/21 01:58:36;;;;;;;;;;;26.20;98.10;;;;;;5031811;28;19909;-71
2022/07/21 02:01:02;;;;;;;;;;;26.10;98.10;;;;;;5033991;28;19909;-71
2022/07/21 02:03:27;;;;;;;;;;;26.10;98.00;;;;;;5033186;28;20000;-72
2022/07/21 02:05:59;;;;;;;;;;;26.10;98.00;;;;;;5034906;28;20068;-72
2022/07/21 02:08:25;;;;;;;;;;;26.00;98.20;;;;;;5039317;28;19925;-70
2022/07/21 02:10:51;;;;;;;;;;;25.90;98.10;;;;;;5038410;28;19945;-71
2022/07/21 02:13:16;;;;;;;;;;;25.90;98.30;;;;;;5039909;28;20368;-70
2022/07/21 02:15:42;;;;;;;;;;;25.90;98.30;;;;;;5034342;28;19986;-70
2022/07/21 02:18:08;;;;;;;;;;;25.90;98.00;;;;;;5035666;28;19920;-70
2022/07/21 02:20:33;;;;;;;;;;;25.90;98.20;;;;;;5034289;28;19909;-71
2022/07/21 02:22:59;;;;;;;;;;;26.00;97.70;;;;;;5032208;28;20349;-71
2022/07/21 02:25:24;;;;;;;;;;;26.10;97.80;;;;;;5032111;28;19928;-71
2022/07/21 02:27:50;;;;;;;;;;;26.10;97.80;;;;;;5032072;28;19909;-70
2022/07/21 02:30:15;;;;;;;;;;;26.10;97.70;;;;;;5030836;28;19909;-71
2022/07/21 02:32:41;;;;;;;;;;;26.10;97.90;;;;;;5032556;28;19996;-70
2022/07/21 02:35:07;;;;;;;;;;;26.00;97.70;;;;;;5034275;28;19921;-70
2022/07/21 02:37:32;;;;;;;;;;;26.00;97.80;;;;;;5035319;28;19968;-71
2022/07/21 02:39:58;;;;;;;;;;;26.00;98.00;;;;;;5034814;28;20110;-71
2022/07/21 02:42:24;;;;;;;;;;;26.00;97.90;;;;;;5035944;28;20416;-71
2022/07/21 02:44:49;;;;;;;;;;;25.90;98.20;;;;;;5035279;28;19924;-71
2022/07/21 02:47:15;;;;;;;;;;;25.90;98.10;;;;;;5035785;28;20299;-71
2022/07/21 02:49:40;;;;;;;;;;;25.90;98.00;;;;;;5036032;28;19916;-71
2022/07/21 02:52:06;;;;;;;;;;;26.00;97.80;;;;;;5041451;28;20004;-71
2022/07/21 02:54:31;;;;;;;;;;;26.10;97.80;;;;;;5039739;28;20166;-70
2022/07/21 02:56:57;;;;;;;;;;;26.10;97.70;;;;;;5036723;28;19916;-70
2022/07/21 02:59:23;;;;;;;;;;;26.20;97.60;;;;;;5040921;28;19917;-72
2022/07/21 03:01:48;;;;;;;;;;;26.20;97.70;;;;;;5040174;28;20023;-72
2022/07/21 03:04:14;;;;;;;;;;;26.20;97.80;;;;;;5035308;28;20276;-71
2022/07/21 03:06:40;;;;;;;;;;;26.10;97.70;;;;;;5032069;28;19917;-71
2022/07/21 03:09:06;;;;;;;;;;;26.10;97.90;;;;;;5032304;28;19913;-70
2022/07/21 03:11:32;;;;;;;;;;;25.90;98.00;;;;;;5034453;28;19972;-70
2022/07/21 03:13:57;;;;;;;;;;;26.00;98.10;;;;;;5031562;28;20387;-72
2022/07/21 03:16:23;;;;;;;;;;;26.00;98.00;;;;;;5031537;28;20410;-70
2022/07/21 03:18:49;;;;;;;;;;;26.10;97.80;;;;;;5032427;28;20300;-70
2022/07/21 03:21:14;;;;;;;;;;;26.10;97.80;;;;;;5031978;28;19909;-71
2022/07/21 03:23:45;;;;;;;;;;;26.10;97.90;;;;;;5032825;28;19924;-72
2022/07/21 03:26:13;;;;;;;;;;;26.00;98.00;;;;;;5031969;28;19910;-71
2022/07/21 03:28:39;;;;;;;;;;;26.00;98.00;;;;;;5030453;28;19920;-71
2022/07/21 03:31:05;;;;;;;;;;;26.00;98.10;;;;;;5032267;28;20433;-72
2022/07/21 03:33:31;;;;;;;;;;;26.00;98.30;;;;;;5031999;28;19910;-71
2022/07/21 03:35:58;;;;;;;;;;;25.90;98.40;;;;;;5031557;28;19913;-70
2022/07/21 03:38:24;;;;;;;;;;;26.00;98.30;;;;;;5032575;28;19909;-71
2022/07/21 03:40:50;;;;;;;;;;;26.00;98.20;;;;;;5032020;28;19951;-71
2022/07/21 03:43:16;;;;;;;;;;;26.00;98.30;;;;;;5032295;28;20005;-70
2022/07/21 03:45:41;;;;;;;;;;;26.00;98.30;;;;;;5032407;28;20000;-72
2022/07/21 03:48:08;;;;;;;;;;;25.90;98.30;;;;;;5034062;28;19909;-72
2022/07/21 03:50:35;;;;;;;;;;;26.00;98.50;;;;;;5035656;28;19909;-71
2022/07/21 03:53:00;;;;;;;;;;;26.00;98.40;;;;;;5036622;28;19909;-71
2022/07/21 03:55:26;;;;;;;;;;;26.10;98.40;;;;;;5038587;28;19992;-71
2022/07/21 03:57:52;;;;;;;;;;;26.00;98.40;;;;;;5041657;28;20055;-71
2022/07/21 04:00:37;;;;;;;;;;;26.00;98.40;;;;;;5046818;28;19910;-71
2022/07/21 04:03:04;;;;;;;;;;;26.00;98.50;;;;;;5045824;28;19920;-69
2022/07/21 04:05:29;;;;;;;;;;;26.00;98.50;;;;;;5040552;28;19917;-71
2022/07/21 04:07:55;;;;;;;;;;;26.00;98.70;;;;;;5046397;28;19909;-71
2022/07/21 04:10:24;;;;;;;;;;;26.00;98.90;;;;;;5043432;28;20000;-71
2022/07/21 04:12:49;;;;;;;;;;;26.00;99.00;;;;;;5046978;28;19993;-71
2022/07/21 04:15:16;;;;;;;;;;;26.00;98.90;;;;;;5042665;28;20408;-71
2022/07/21 04:17:41;;;;;;;;;;;26.10;98.90;;;;;;5036412;28;19916;-71
2022/07/21 04:20:07;;;;;;;;;;;26.10;99.00;;;;;;5034780;28;20323;-71
2022/07/21 04:22:33;;;;;;;;;;;26.10;99.00;;;;;;5035120;28;19940;-71
2022/07/21 04:25:02;;;;;;;;;;;26.10;99.00;;;;;;5034423;28;20399;-71
2022/07/21 04:27:27;;;;;;;;;;;26.10;99.00;;;;;;5034948;28;20300;-72
2022/07/21 04:29:53;;;;;;;;;;;26.10;99.00;;;;;;5039647;28;19913;-71
2022/07/21 04:32:19;;;;;;;;;;;26.10;98.90;;;;;;5047322;28;20012;-72
2022/07/21 04:34:45;;;;;;;;;;;26.10;98.90;;;;;;5046944;28;19959;-72
2022/07/21 04:37:10;;;;;;;;;;;26.20;98.90;;;;;;5047135;28;19913;-71
2022/07/21 04:39:36;;;;;;;;;;;26.20;98.90;;;;;;5043315;28;19919;-71
2022/07/21 04:42:02;;;;;;;;;;;26.20;98.90;;;;;;5034630;28;19932;-71
2022/07/21 04:44:27;;;;;;;;;;;26.20;98.80;;;;;;5034053;28;19976;-72
2022/07/21 04:46:53;;;;;;;;;;;26.30;98.70;;;;;;5034194;28;20004;-72
2022/07/21 04:49:18;;;;;;;;;;;26.40;98.70;;;;;;5034286;28;19983;-72
2022/07/21 04:51:44;;;;;;;;;;;26.40;98.70;;;;;;5033724;28;19920;-71
2022/07/21 04:54:13;;;;;;;;;;;26.30;98.80;;;;;;5032049;28;19917;-72
2022/07/21 04:56:39;;;;;;;;;;;26.30;98.90;;;;;;5033707;28;19916;-71
2022/07/21 04:59:05;;;;;;;;;;;26.30;99.00;;;;;;5034036;28;20311;-71
2022/07/21 05:01:30;;;;;;;;;;;26.20;99.00;;;;;;5033766;28;19913;-71
2022/07/21 05:03:56;;;;;;;;;;;26.20;99.10;;;;;;5033246;28;19909;-72
2022/07/21 05:06:21;;;;;;;;;;;26.20;99.10;;;;;;5033169;28;19962;-71
2022/07/21 05:08:47;;;;;;;;;;;26.30;99.10;;;;;;5033382;28;19916;-71
2022/07/21 05:11:13;;;;;;;;;;;26.30;99.10;;;;;;5032472;28;20166;-72
2022/07/21 05:13:38;;;;;;;;;;;26.40;99.10;;;;;;5033656;28;19945;-71
2022/07/21 05:16:04;;;;;;;;;;;26.40;99.00;;;;;;5032947;28;20328;-71
2022/07/21 05:18:30;;;;;;;;;;;26.30;99.00;;;;;;5033587;28;19909;-72
2022/07/21 05:20:56;;;;;;;;;;;26.40;99.10;;;;;;5033401;28;19909;-73
2022/07/21 05:23:21;;;;;;;;;;;26.50;99.00;;;;;;5033199;28;20200;-72
2022/07/21 05:25:47;;;;;;;;;;;26.60;99.00;;;;;;5032733;28;19952;-71
2022/07/21 05:28:12;;;;;;;;;;;26.70;99.00;;;;;;5033810;28;19967;-71
2022/07/21 05:30:38;;;;;;;;;;;26.70;99.00;;;;;;5033385;28;19941;-72
2022/07/21 05:33:03;;;;;;;;;;;26.80;99.00;;;;;;5033482;28;19909;-71
2022/07/21 05:35:30;;;;;;;;;;;26.90;99.00;;;;;;5032820;28;19998;-71
2022/07/21 05:37:56;;;;;;;;;;;27.00;99.10;;;;;;5033028;28;19916;-72
2022/07/21 05:40:21;;;;;;;;;;;27.10;98.90;;;;;;5032794;28;19913;-72
2022/07/21 05:42:47;;;;;;;;;;;27.10;98.90;;;;;;5032911;28;19913;-71
2022/07/21 05:45:13;;;;;;;;;;;27.20;98.80;;;;;;5033005;28;20345;-71
2022/07/21 05:47:39;;;;;;;;;;;27.40;98.80;;;;;;5033168;28;19920;-72
2022/07/21 05:50:05;;;;;;;;;;;27.50;98.70;;;;;;5031471;28;19909;-72
2022/07/21 05:52:30;;;;;;;;;;;27.60;98.70;;;;;;5033043;28;20470;-71
2022/07/21 05:54:56;;;;;;;;;;;27.60;98.80;;;;;;5032876;28;19913;-71
2022/07/21 05:57:21;;;;;;;;;;;27.70;98.70;;;;;;5032620;28;19909;-72
2022/07/21 05:59:47;;;;;;;;;;;27.80;98.60;;;;;;5033404;28;19909;-71
2022/07/21 06:02:13;;;;;;;;;;;27.90;98.80;;;;;;5033276;28;19931;-71
2022/07/21 06:04:39;;;;;;;;;;;28.00;98.70;;;;;;5032101;28;19917;-72
2022/07/21 06:07:04;;;;;;;;;;;28.10;98.50;;;;;;5033398;28;20091;-72
2022/07/21 06:09:30;;;;;;;;;;;28.30;98.30;;;;;;5033035;28;19940;-72
2022/07/21 06:11:55;;;;;;;;;;;28.30;98.70;;;;;;5032581;28;20435;-72
2022/07/21 06:14:21;;;;;;;;;;;28.40;98.70;;;;;;5032202;28;19909;-71
2022/07/21 06:16:47;;;;;;;;;;;28.50;98.80;;;;;;5032103;28;19948;-71
2022/07/21 06:19:12;;;;;;;;;;;28.50;99.10;;;;;;5032306;28;19913;-72
2022/07/21 06:21:40;;;;;;;;;;;28.50;98.80;;;;;;5032079;28;19937;-71
2022/07/21 06:24:06;;;;;;;;;;;28.60;98.60;;;;;;5032182;28;20355;-73
2022/07/21 06:26:32;;;;;;;;;;;28.60;98.40;;;;;;5033367;28;19909;-72
2022/07/21 06:28:57;;;;;;;;;;;28.40;99.90;;;;;;5032895;28;20011;-72
2022/07/21 06:31:23;;;;;;;;;;;28.30;99.90;;;;;;5033044;28;19940;-71
2022/07/21 06:33:48;;;;;;;;;;;27.90;99.90;;;;;;5032877;28;19920;-71
2022/07/21 06:36:14;;;;;;;;;;;27.50;99.90;;;;;;5032307;28;19956;-71
2022/07/21 06:38:39;;;;;;;;;;;27.30;99.90;;;;;;5033103;28;19909;-72
2022/07/21 06:41:06;;;;;;;;;;;27.10;99.90;;;;;;5031718;28;19909;-72
2022/07/21 06:43:32;;;;;;;;;;;27.00;99.90;;;;;;5032359;28;19955;-71
2022/07/21 06:45:58;;;;;;;;;;;27.10;99.90;;;;;;5031827;28;20265;-70
2022/07/21 06:48:24;;;;;;;;;;;27.20;99.90;;;;;;5031378;28;19992;-71
2022/07/21 06:50:50;;;;;;;;;;;27.30;99.90;;;;;;5031989;28;20075;-71
2022/07/21 06:53:16;;;;;;;;;;;27.50;99.90;;;;;;5033140;28;19991;-71
2022/07/21 06:55:42;;;;;;;;;;;27.80;99.90;;;;;;5032106;28;20020;-72
2022/07/21 06:58:12;;;;;;;;;;;27.90;99.90;;;;;;5032617;28;19916;-71
2022/07/21 07:00:38;;;;;;;;;;;27.90;99.90;;;;;;5031716;28;19985;-71
2022/07/21 07:03:04;;;;;;;;;;;28.00;99.90;;;;;;5035088;28;19916;-71
2022/07/21 07:05:30;;;;;;;;;;;28.20;99.90;;;;;;5035092;28;19909;-72
2022/07/21 07:07:56;;;;;;;;;;;28.50;99.90;;;;;;5037112;28;19909;-72
2022/07/21 07:10:22;;;;;;;;;;;28.70;99.90;;;;;;5040014;28;20408;-72
2022/07/21 07:12:47;;;;;;;;;;;28.90;99.90;;;;;;5039566;28;19916;-72
2022/07/21 07:15:13;;;;;;;;;;;29.00;99.90;;;;;;5038347;28;20218;-71
2022/07/21 07:17:38;;;;;;;;;;;29.20;99.90;;;;;;5033457;28;19921;-72
2022/07/21 07:20:06;;;;;;;;;;;29.30;99.90;;;;;;5032422;28;20224;-72
2022/07/21 07:22:31;;;;;;;;;;;29.30;99.90;;;;;;5031382;28;19928;-72
2022/07/21 07:24:57;;;;;;;;;;;29.40;99.90;;;;;;5033711;28;19924;-71
2022/07/21 07:27:22;;;;;;;;;;;29.50;99.90;;;;;;5030170;28;19909;-71
2022/07/21 07:29:48;;;;;;;;;;;29.60;99.90;;;;;;5031193;28;20289;-73
2022/07/21 07:32:14;;;;;;;;;;;29.70;99.90;;;;;;5031383;28;19983;-72
2022/07/21 07:34:39;;;;;;;;;;;29.80;99.90;;;;;;5030843;28;20006;-72
2022/07/21 07:37:05;;;;;;;;;;;30.00;99.90;;;;;;5031128;28;19909;-71
2022/07/21 07:39:31;;;;;;;;;;;30.10;99.90;;;;;;5031422;28;20248;-72
2022/07/21 07:41:56;;;;;;;;;;;30.10;99.90;;;;;;5031088;28;19990;-72
2022/07/21 07:44:22;;;;;;;;;;;30.20;99.90;;;;;;5030869;28;19910;-71
2022/07/21 07:46:48;;;;;;;;;;;30.30;99.90;;;;;;5031411;28;19917;-72
2022/07/21 07:49:14;;;;;;;;;;;30.40;99.90;;;;;;5035228;28;19909;-72
2022/07/21 07:51:40;;;;;;;;;;;30.50;99.90;;;;;;5035242;28;19932;-73
2022/07/21 07:54:05;;;;;;;;;;;30.60;99.90;;;;;;5035177;28;19913;-72
2022/07/21 07:56:31;;;;;;;;;;;30.70;99.90;;;;;;5034895;28;19913;-71
2022/07/21 07:58:57;;;;;;;;;;;30.80;99.40;;;;;;5035475;28;19909;-72
2022/07/21 08:01:23;;;;;;;;;;;30.80;98.90;;;;;;5035059;28;19909;-72
2022/07/21 08:03:49;;;;;;;;;;;30.90;98.60;;;;;;5035171;28;19917;-71
2022/07/21 08:06:15;;;;;;;;;;;31.00;98.10;;;;;;5035135;28;19909;-71
2022/07/21 08:08:41;;;;;;;;;;;31.00;97.80;;;;;;5035130;28;19916;-72
2022/07/21 08:11:06;;;;;;;;;;;31.00;97.50;;;;;;5035526;28;19924;-72
2022/07/21 08:13:32;;;;;;;;;;;30.90;97.90;;;;;;5035291;28;20376;-72
2022/07/21 08:15:58;;;;;;;;;;;30.60;97.90;;;;;;5035617;28;19968;-72
2022/07/21 08:18:23;;;;;;;;;;;30.40;98.60;;;;;;5034695;28;20051;-72
2022/07/21 08:20:49;;;;;;;;;;;30.30;97.90;;;;;;5033804;28;19949;-72
2022/07/21 08:23:15;;;;;;;;;;;30.20;98.40;;;;;;5037238;28;19992;-71
2022/07/21 08:25:41;;;;;;;;;;;30.10;97.70;;;;;;5036728;28;19913;-71
2022/07/21 08:28:07;;;;;;;;;;;30.00;97.80;;;;;;5036072;28;20054;-74
2022/07/21 08:30:32;;;;;;;;;;;30.00;97.70;;;;;;5035493;28;19937;-72
2022/07/21 08:32:58;;;;;;;;;;;29.90;97.30;;;;;;5035371;28;19982;-72
2022/07/21 08:35:24;;;;;;;;;;;30.00;97.20;;;;;;5034664;28;19920;-72
2022/07/21 08:37:54;;;;;;;;;;;30.00;96.90;;;;;;5035173;28;20003;-72
2022/07/21 08:40:22;;;;;;;;;;;30.00;96.90;;;;;;5035052;28;20016;-72
2022/07/21 08:42:47;;;;;;;;;;;30.00;97.10;;;;;;5036338;28;19909;-71
2022/07/21 08:45:13;;;;;;;;;;;29.80;96.80;;;;;;5034460;28;20004;-72
2022/07/21 08:47:39;;;;;;;;;;;29.70;98.20;;;;;;5034996;28;19948;-72
2022/07/21 08:50:05;;;;;;;;;;;29.50;98.40;;;;;;5034655;28;20377;-71
2022/07/21 08:52:30;;;;;;;;;;;29.30;98.10;;;;;;5032589;28;19909;-71
2022/07/21 08:54:56;;;;;;;;;;;29.30;98.50;;;;;;5033342;28;20262;-72
2022/07/21 08:57:22;;;;;;;;;;;29.40;98.60;;;;;;5033897;28;19989;-70
2022/07/21 08:59:48;;;;;;;;;;;29.60;98.40;;;;;;5032874;28;19909;-71
2022/07/21 09:02:29;;;;;;;;;;;29.70;97.60;;;;;;5034197;28;20360;-71
2022/07/21 09:04:55;;;;;;;;;;;29.60;98.00;;;;;;5033184;28;20390;-72
2022/07/21 09:07:22;;;;;;;;;;;29.70;98.70;;;;;;5033413;28;19909;-71
2022/07/21 09:09:55;;;;;;;;;;;29.80;99.80;;;;;;5033876;28;20284;-72
2022/07/21 09:12:21;;;;;;;;;;;30.00;99.90;;;;;;5033676;28;19916;-71
2022/07/21 09:14:46;;;;;;;;;;;30.10;99.90;;;;;;5033051;28;20280;-72
2022/07/21 09:17:12;;;;;;;;;;;30.10;99.90;;;;;;5033265;28;19909;-70
2022/07/21 09:19:38;;;;;;;;;;;30.10;99.90;;;;;;5033157;28;19981;-72
2022/07/21 09:22:12;;;;;;;;;;;30.20;99.90;;;;;;5033345;28;19992;-69
2022/07/21 09:24:38;;;;;;;;;;;30.20;99.90;;;;;;5032897;28;20455;-71
2022/07/21 09:27:05;;;;;;;;;;;30.20;99.90;;;;;;5033169;28;19909;-70
2022/07/21 09:29:41;;;;;;;;;;;30.40;99.90;;;;;;5033037;28;19967;-72
2022/07/21 09:32:24;;;;;;;;;;;30.50;99.90;;;;;;5033171;28;19964;-71
2022/07/21 09:34:51;;;;;;;;;;;30.40;99.70;;;;;;5032873;28;19917;-72
2022/07/21 09:37:17;;;;;;;;;;;30.40;99.20;;;;;;5033176;28;19984;-71
2022/07/21 09:39:47;;;;;;;;;;;30.50;98.40;;;;;;5032933;28;19909;-72
2022/07/21 09:42:13;;;;;;;;;;;30.80;98.10;;;;;;5033425;28;19973;-71
2022/07/21 09:44:41;;;;;;;;;;;30.90;97.90;;;;;;5031121;28;20306;-72
2022/07/21 09:47:14;;;;;;;;;;;30.90;98.60;;;;;;5032486;28;19917;-72
2022/07/21 09:49:41;;;;;;;;;;;30.80;99.20;;;;;;5033224;28;20283;-72
2022/07/21 09:52:27;;;;;;;;;;;30.90;99.60;;;;;;5033465;28;20368;-71
2022/07/21 09:54:53;;;;;;;;;;;30.90;99.90;;;;;;5033074;28;19913;-71
2022/07/21 09:57:20;;;;;;;;;;;30.80;99.70;;;;;;5033306;28;20381;-71
2022/07/21 09:59:46;;;;;;;;;;;30.70;99.10;;;;;;5033334;28;19909;-72
2022/07/21 10:02:15;;;;;;;;;;;30.70;99.00;;;;;;5033942;28;20030;-72
2022/07/21 10:04:41;;;;;;;;;;;30.70;98.20;;;;;;5033711;28;19948;-73
2022/07/21 10:07:07;;;;;;;;;;;30.60;98.20;;;;;;5034955;28;19909;-71
2022/07/21 10:09:32;;;;;;;;;;;30.70;98.80;;;;;;5035188;28;19916;-72
2022/07/21 10:11:59;;;;;;;;;;;31.00;98.70;;;;;;5035335;28;19916;-72
2022/07/21 10:14:25;;;;;;;;;;;31.20;99.50;;;;;;5034280;28;19913;-72
2022/07/21 10:16:50;;;;;;;;;;;31.30;99.50;;;;;;5034600;28;19991;-73
2022/07/21 10:19:21;;;;;;;;;;;31.30;99.90;;;;;;5034805;28;19951;-71
2022/07/21 10:21:59;;;;;;;;;;;31.20;99.10;;;;;;5034307;28;20345;-72
2022/07/21 10:24:27;;;;;;;;;;;31.00;97.40;;;;;;5033797;28;20380;-70
2022/07/21 10:27:09;;;;;;;;;;;30.90;97.30;;;;;;5031877;28;20015;-71
2022/07/21 10:29:47;;;;;;;;;;;30.80;96.90;;;;;;5031148;28;20344;-71
2022/07/21 10:32:14;;;;;;;;;;;30.80;97.60;;;;;;5032328;28;19909;-71
2022/07/21 10:34:40;;;;;;;;;;;30.80;99.00;;;;;;5031715;28;19936;-73
2022/07/21 10:37:05;;;;;;;;;;;30.80;99.90;;;;;;5032716;28;20408;-72
2022/07/21 10:39:33;;;;;;;;;;;30.70;99.90;;;;;;5032151;28;19909;-71
2022/07/21 10:42:00;;;;;;;;;;;30.50;99.90;;;;;;5031762;28;19909;-72
2022/07/21 10:44:32;;;;;;;;;;;30.50;99.90;;;;;;5031227;28;19948;-71
2022/07/21 10:46:59;;;;;;;;;;;30.40;99.90;;;;;;5031358;28;19909;-72
2022/07/21 10:49:43;;;;;;;;;;;30.50;99.90;;;;;;5031416;28;19909;-71
2022/07/21 10:52:27;;;;;;;;;;;30.50;99.90;;;;;;5031465;28;19909;-73
2022/07/21 10:55:26;;;;;;;;;;;30.50;99.90;;;;;;5031124;28;20406;-72
2022/07/21 10:58:12;;;;;;;;;;;30.40;99.90;;;;;;5031565;28;19952;-71
2022/07/21 11:00:38;;;;;;;;;;;30.50;99.90;;;;;;5031196;28;19915;-72
2022/07/21 11:03:12;;;;;;;;;;;30.70;99.90;;;;;;5031642;28;19909;-71
2022/07/21 11:05:57;;;;;;;;;;;30.80;99.90;;;;;;5029401;28;19919;-72
2022/07/21 11:08:29;;;;;;;;;;;31.00;99.90;;;;;;5031177;28;20000;-72
2022/07/21 11:11:06;;;;;;;;;;;31.30;99.90;;;;;;5031485;28;19989;-72
2022/07/21 11:13:51;;;;;;;;;;;31.40;99.90;;;;;;5030842;28;20000;-72
2022/07/21 11:16:17;;;;;;;;;;;31.60;99.90;;;;;;5029044;28;20443;-71
2022/07/21 11:18:43;;;;;;;;;;;31.60;99.90;;;;;;5030953;28;19941;-72
2022/07/21 11:21:08;;;;;;;;;;;31.60;99.90;;;;;;5031085;28;19963;-72
2022/07/21 11:23:35;;;;;;;;;;;31.60;99.90;;;;;;5030598;28;19917;-72
2022/07/21 11:26:01;;;;;;;;;;;31.60;99.90;;;;;;5030824;28;20013;-73
2022/07/21 11:28:27;;;;;;;;;;;31.40;99.90;;;;;;5031007;28;19948;-72
2022/07/21 11:31:07;;;;;;;;;;;31.60;99.90;;;;;;5030676;28;19924;-72
2022/07/21 11:33:35;;;;;;;;;;;31.60;99.90;;;;;;5030679;28;19909;-71
2022/07/21 11:36:00;;;;;;;;;;;31.80;99.90;;;;;;5030229;28;19913;-72
2022/07/21 11:38:26;;;;;;;;;;;31.90;99.90;;;;;;5029710;28;19944;-73
2022/07/21 11:40:51;;;;;;;;;;;31.80;99.90;;;;;;5030802;28;19909;-72
2022/07/21 11:43:17;;;;;;;;;;;31.60;99.90;;;;;;5030792;28;20320;-73
2022/07/21 11:45:52;;;;;;;;;;;31.60;99.90;;;;;;5030500;28;19909;-71
2022/07/21 11:48:38;;;;;;;;;;;31.60;99.90;;;;;;5030677;28;19910;-72
2022/07/21 11:51:04;;;;;;;;;;;31.70;99.90;;;;;;5030986;28;20008;-73
2022/07/21 11:53:30;;;;;;;;;;;31.80;99.90;;;;;;5032217;28;19949;-74
2022/07/21 11:55:56;;;;;;;;;;;31.80;99.90;;;;;;5032161;28;19958;-71
2022/07/21 11:58:21;;;;;;;;;;;31.80;99.90;;;;;;5032338;28;19996;-72
2022/07/21 12:00:47;;;;;;;;;;;31.70;99.90;;;;;;5031752;28;19949;-72
2022/07/21 12:03:13;;;;;;;;;;;31.80;99.10;;;;;;5032039;28;19916;-71
2022/07/21 12:05:39;;;;;;;;;;;31.80;99.90;;;;;;5031136;28;20546;-72
2022/07/21 12:08:05;;;;;;;;;;;31.60;99.90;;;;;;5030665;28;20019;-72
2022/07/21 12:10:30;;;;;;;;;;;31.70;99.90;;;;;;5030736;28;19941;-74
2022/07/21 12:13:01;;;;;;;;;;;31.70;99.90;;;;;;5030518;28;20493;-72
2022/07/21 12:15:33;;;;;;;;;;;32.00;99.90;;;;;;5030136;28;20238;-71
2022/07/21 12:18:01;;;;;;;;;;;32.30;99.90;;;;;;5030552;28;19920;-71
2022/07/21 12:20:39;;;;;;;;;;;32.50;99.90;;;;;;5030687;28;20342;-72
2022/07/21 12:23:37;;;;;;;;;;;32.40;99.90;;;;;;5031336;28;20364;-71
2022/07/21 12:26:03;;;;;;;;;;;32.20;99.90;;;;;;4999256;28;20515;-72
2022/07/21 12:28:48;;;;;;;;;;;32.00;99.90;;;;;;5031170;28;20063;-71
2022/07/21 12:31:16;;;;;;;;;;;31.90;99.90;;;;;;5030989;28;19909;-71
2022/07/21 12:33:42;;;;;;;;;;;32.00;99.90;;;;;;5030717;28;19909;-72
2022/07/21 12:36:08;;;;;;;;;;;32.00;99.90;;;;;;5034071;28;19913;-73
2022/07/21 12:38:44;;;;;;;;;;;31.80;99.90;;;;;;5034315;28;20352;-73
2022/07/21 12:41:11;;;;;;;;;;;32.00;99.90;;;;;;5033630;28;19952;-70
2022/07/21 12:43:37;;;;;;;;;;;32.00;99.90;;;;;;5034447;28;20400;-72
2022/07/21 12:46:08;;;;;;;;;;;32.00;99.90;;;;;;5033899;28;19913;-72
2022/07/21 12:48:37;;;;;;;;;;;31.90;99.90;;;;;;5034120;28;19983;-71
2022/07/21 12:51:06;;;;;;;;;;;32.00;99.00;;;;;;5034031;28;19916;-72
2022/07/21 12:53:32;;;;;;;;;;;31.80;99.90;;;;;;5034083;28;20008;-72
2022/07/21 12:55:58;;;;;;;;;;;31.70;99.90;;;;;;5033386;28;19920;-72
2022/07/21 12:58:23;;;;;;;;;;;31.90;99.90;;;;;;5033591;28;19909;-72
2022/07/21 13:00:49;;;;;;;;;;;31.90;99.90;;;;;;5033375;28;19913;-71
2022/07/21 13:03:15;;;;;;;;;;;32.00;99.90;;;;;;5033739;28;20453;-70
2022/07/21 13:05:41;;;;;;;;;;;32.20;99.90;;;;;;5033337;28;20391;-73
2022/07/21 13:08:06;;;;;;;;;;;32.40;99.90;;;;;;5032177;28;19932;-71
2022/07/21 13:10:32;;;;;;;;;;;32.40;99.10;;;;;;5033333;28;19948;-72
2022/07/21 13:12:57;;;;;;;;;;;32.30;99.90;;;;;;5033125;28;19909;-72
2022/07/21 13:15:23;;;;;;;;;;;32.50;98.70;;;;;;5032731;28;20007;-70
2022/07/21 13:17:48;;;;;;;;;;;32.40;97.80;;;;;;5033164;28;19913;-72
2022/07/21 13:20:14;;;;;;;;;;;32.20;98.00;;;;;;5033007;28;19909;-72
2022/07/21 13:22:40;;;;;;;;;;;32.20;97.70;;;;;;5033751;28;19996;-72
2022/07/21 13:25:07;;;;;;;;;;;32.50;98.00;;;;;;5031576;28;19990;-73
2022/07/21 13:27:34;;;;;;;;;;;32.60;98.20;;;;;;5033528;28;19962;-71
2022/07/21 13:30:00;;;;;;;;;;;32.80;98.50;;;;;;5033203;28;19920;-72
2022/07/21 13:32:26;;;;;;;;;;;32.80;96.60;;;;;;5033943;28;19949;-72
2022/07/21 13:34:51;;;;;;;;;;;32.50;97.90;;;;;;5033314;28;19945;-73
2022/07/21 13:37:17;;;;;;;;;;;32.30;97.30;;;;;;5033156;28;19909;-72
2022/07/21 13:39:42;;;;;;;;;;;32.30;98.80;;;;;;5032688;28;19909;-71
2022/07/21 13:42:08;;;;;;;;;;;32.50;99.90;;;;;;5032627;28;20361;-72
2022/07/21 13:44:34;;;;;;;;;;;32.60;99.90;;;;;;5032579;28;19915;-72
2022/07/21 13:47:00;;;;;;;;;;;32.60;99.80;;;;;;5033139;28;19913;-72
2022/07/21 13:49:25;;;;;;;;;;;32.60;98.90;;;;;;5032983;28;20368;-71
2022/07/21 13:51:51;;;;;;;;;;;32.70;99.90;;;;;;5032829;28;19909;-72
2022/07/21 13:54:17;;;;;;;;;;;32.80;99.90;;;;;;5033184;28;20213;-74
2022/07/21 13:56:42;;;;;;;;;;;32.90;98.80;;;;;;5033511;28;20004;-74
2022/07/21 13:59:08;;;;;;;;;;;33.00;99.50;;;;;;5033442;28;20387;-72
2022/07/21 14:01:34;;;;;;;;;;;33.10;98.60;;;;;;5033738;28;19916;-73
2022/07/21 14:03:59;;;;;;;;;;;33.10;98.50;;;;;;5033593;28;19913;-72
2022/07/21 14:06:25;;;;;;;;;;;33.20;97.90;;;;;;5033137;28;20145;-73
2022/07/21 14:08:51;;;;;;;;;;;33.00;97.60;;;;;;5032769;28;20260;-73
2022/07/21 14:11:16;;;;;;;;;;;33.10;96.90;;;;;;5032903;28;19917;-73
2022/07/21 14:13:42;;;;;;;;;;;33.00;96.80;;;;;;5032950;28;19972;-72
2022/07/21 14:16:08;;;;;;;;;;;32.90;96.50;;;;;;5032335;28;19982;-72
2022/07/21 14:18:34;;;;;;;;;;;32.90;96.50;;;;;;5031371;28;20348;-71